sensor_id;sensor_type;location;lat;lon;timestamp;temperature;humidity
26224;DHT22;14820;48.682;8.890;2022-12-07T00:00:15;3.30;99.90
26224;DHT22;14820;48.682;8.890;2022-12-07T00:02:41;3.30;99.90
26224;DHT22;14820;48.682;8.890;2022-12-07T01:14:52;3.40;99.90
26224;DHT22;14820;48.682;8.890;2022-12-07T01:17:17;3.30;99.90
26224;DHT22;14820;48.682;8.890;2022-12-07T01:19:43;3.40;99.90
26224;DHT22;14820;48.682;8.890;2022-12-07T01:22:08;3.40;99.90
26224;DHT22;14820;48.682;8.890;2022-12-07T01:24:34;3.30;99.90
26224;DHT22;14820;48.682;8.890;2022-12-07T01:26:59;3.30;99.90
26224;DHT22;14820;48.682;8.890;2022-12-07T01:29:25;3.30;99.90
26224;DHT22;14820;48.682;8.890;2022-12-07T01:31:50;3.30;99.90
26224;DHT22;14820;48.682;8.890;2022-12-07T01:34:16;3.30;99.90
26224;DHT22;14820;48.682;8.890;2022-12-07T02:32:05;3.10;99.90
26224;DHT22;14820;48.682;8.890;2022-12-07T02:34:38;3.10;99.90
26224;DHT22;14820;48.682;8.890;2022-12-07T02:37:09;3.20;99.90
26224;DHT22;14820;48.682;8.890;2022-12-07T02:39:44;3.20;99.90
26224;DHT22;14820;48.682;8.890;2022-12-07T02:42:19;3.20;99.90
26224;DHT22;14820;48.682;8.890;2022-12-07T02:44:47;3.20;99.90
26224;DHT22;14820;48.682;8.890;2022-12-07T02:47:13;3.20;99.90
26224;DHT22;14820;48.682;8.890;2022-12-07T02:49:40;3.10;99.90
26224;DHT22;14820;48.682;8.890;2022-12-07T02:52:05;3.00;99.90
26224;DHT22;14820;48.682;8.890;2022-12-07T02:54:31;3.10;99.90
26224;DHT22;14820;48.682;8.890;2022-12-07T02:57:20;3.10;99.90
26224;DHT22;14820;48.682;8.890;2022-12-07T03:07:24;3.00;99.90
26224;DHT22;14820;48.682;8.890;2022-12-07T03:12:58;3.00;99.90
26224;DHT22;14820;48.682;8.890;2022-12-07T03:15:26;3.00;99.90
26224;DHT22;14820;48.682;8.890;2022-12-07T03:17:52;3.00;99.90
26224;DHT22;14820;48.682;8.890;2022-12-07T03:20:19;3.00;99.90
26224;DHT22;14820;48.682;8.890;2022-12-07T03:22:45;2.90;99.90
26224;DHT22;14820;48.682;8.890;2022-12-07T03:25:13;2.90;99.90
26224;DHT22;14820;48.682;8.890;2022-12-07T03:27:41;2.90;99.90
26224;DHT22;14820;48.682;8.890;2022-12-07T03:30:17;2.90;99.90
26224;DHT22;14820;48.682;8.890;2022-12-07T03:32:43;2.90;99.90
26224;DHT22;14820;48.682;8.890;2022-12-07T03:35:12;2.90;99.90
26224;DHT22;14820;48.682;8.890;2022-12-07T03:37:55;2.90;99.90
26224;DHT22;14820;48.682;8.890;2022-12-07T03:40:23;2.90;99.90
26224;DHT22;14820;48.682;8.890;2022-12-07T03:42:49;2.90;99.90
26224;DHT22;14820;48.682;8.890;2022-12-07T03:45:16;2.90;99.90
26224;DHT22;14820;48.682;8.890;2022-12-07T03:47:51;2.90;99.90
26224;DHT22;14820;48.682;8.890;2022-12-07T03:50:21;2.90;99.90
26224;DHT22;14820;48.682;8.890;2022-12-07T03:52:54;2.90;99.90
26224;DHT22;14820;48.682;8.890;2022-12-07T03:55:23;2.80;99.90
26224;DHT22;14820;48.682;8.890;2022-12-07T03:57:51;2.90;99.90
26224;DHT22;14820;48.682;8.890;2022-12-07T04:00:17;2.80;99.90
26224;DHT22;14820;48.682;8.890;2022-12-07T04:02:43;2.80;99.90
26224;DHT22;14820;48.682;8.890;2022-12-07T04:05:09;2.80;99.90
26224;DHT22;14820;48.682;8.890;2022-12-07T04:07:35;2.80;99.90
26224;DHT22;14820;48.682;8.890;2022-12-07T04:10:00;2.70;99.90
26224;DHT22;14820;48.682;8.890;2022-12-07T04:12:26;2.80;99.90
26224;DHT22;14820;48.682;8.890;2022-12-07T04:14:51;2.70;99.90
26224;DHT22;14820;48.682;8.890;2022-12-07T04:17:17;2.70;99.90
26224;DHT22;14820;48.682;8.890;2022-12-07T04:19:42;2.70;99.90
26224;DHT22;14820;48.682;8.890;2022-12-07T04:22:08;2.70;99.90
26224;DHT22;14820;48.682;8.890;2022-12-07T04:24:34;2.70;99.90
26224;DHT22;14820;48.682;8.890;2022-12-07T04:26:59;2.60;99.90
26224;DHT22;14820;48.682;8.890;2022-12-07T04:29:25;2.60;99.90
26224;DHT22;14820;48.682;8.890;2022-12-07T04:31:50;2.60;99.90
26224;DHT22;14820;48.682;8.890;2022-12-07T04:34:16;2.60;99.90
26224;DHT22;14820;48.682;8.890;2022-12-07T05:06:26;2.40;99.90
26224;DHT22;14820;48.682;8.890;2022-12-07T05:08:52;2.40;99.90
26224;DHT22;14820;48.682;8.890;2022-12-07T05:11:18;2.30;99.90
26224;DHT22;14820;48.682;8.890;2022-12-07T05:14:03;2.20;99.90
26224;DHT22;14820;48.682;8.890;2022-12-07T05:16:29;2.30;99.90
26224;DHT22;14820;48.682;8.890;2022-12-07T05:18:54;2.20;99.90
26224;DHT22;14820;48.682;8.890;2022-12-07T05:21:20;2.20;99.90
26224;DHT22;14820;48.682;8.890;2022-12-07T05:23:45;2.20;99.90
26224;DHT22;14820;48.682;8.890;2022-12-07T05:26:11;2.10;99.90
26224;DHT22;14820;48.682;8.890;2022-12-07T05:28:36;2.10;99.90
26224;DHT22;14820;48.682;8.890;2022-12-07T05:31:02;2.10;99.90
26224;DHT22;14820;48.682;8.890;2022-12-07T05:33:28;2.00;99.90
26224;DHT22;14820;48.682;8.890;2022-12-07T05:35:53;1.90;99.90
26224;DHT22;14820;48.682;8.890;2022-12-07T05:38:19;1.80;99.90
26224;DHT22;14820;48.682;8.890;2022-12-07T05:40:44;1.90;99.90
26224;DHT22;14820;48.682;8.890;2022-12-07T05:43:10;1.80;99.90
26224;DHT22;14820;48.682;8.890;2022-12-07T05:45:36;1.80;99.90
26224;DHT22;14820;48.682;8.890;2022-12-07T05:48:01;1.70;99.90
26224;DHT22;14820;48.682;8.890;2022-12-07T05:50:27;1.70;99.90
26224;DHT22;14820;48.682;8.890;2022-12-07T05:52:53;1.60;99.90
26224;DHT22;14820;48.682;8.890;2022-12-07T05:55:19;1.60;99.90
26224;DHT22;14820;48.682;8.890;2022-12-07T05:57:44;1.60;99.90
26224;DHT22;14820;48.682;8.890;2022-12-07T06:02:56;1.40;99.90
26224;DHT22;14820;48.682;8.890;2022-12-07T06:05:21;1.40;99.90
26224;DHT22;14820;48.682;8.890;2022-12-07T06:07:47;1.40;99.90
26224;DHT22;14820;48.682;8.890;2022-12-07T06:10:12;1.30;99.90
26224;DHT22;14820;48.682;8.890;2022-12-07T06:12:38;1.40;99.90
26224;DHT22;14820;48.682;8.890;2022-12-07T06:15:05;1.40;99.90
26224;DHT22;14820;48.682;8.890;2022-12-07T06:17:30;1.40;99.90
26224;DHT22;14820;48.682;8.890;2022-12-07T06:19:56;1.40;99.90
26224;DHT22;14820;48.682;8.890;2022-12-07T06:22:21;1.40;99.90
26224;DHT22;14820;48.682;8.890;2022-12-07T06:24:47;1.30;99.90
26224;DHT22;14820;48.682;8.890;2022-12-07T06:27:12;1.40;99.90
26224;DHT22;14820;48.682;8.890;2022-12-07T06:29:38;1.30;99.90
26224;DHT22;14820;48.682;8.890;2022-12-07T06:32:04;1.30;99.90
26224;DHT22;14820;48.682;8.890;2022-12-07T06:34:30;1.30;99.90
26224;DHT22;14820;48.682;8.890;2022-12-07T06:36:55;1.40;99.90
26224;DHT22;14820;48.682;8.890;2022-12-07T06:39:23;1.40;99.90
26224;DHT22;14820;48.682;8.890;2022-12-07T06:41:49;1.40;99.90
26224;DHT22;14820;48.682;8.890;2022-12-07T06:44:14;1.30;99.90
26224;DHT22;14820;48.682;8.890;2022-12-07T06:46:40;1.30;99.90
26224;DHT22;14820;48.682;8.890;2022-12-07T06:49:06;1.40;99.90
26224;DHT22;14820;48.682;8.890;2022-12-07T06:51:32;1.40;99.90
26224;DHT22;14820;48.682;8.890;2022-12-07T06:53:58;1.30;99.90
26224;DHT22;14820;48.682;8.890;2022-12-07T06:56:23;1.30;99.90
26224;DHT22;14820;48.682;8.890;2022-12-07T06:58:49;1.30;99.90
26224;DHT22;14820;48.682;8.890;2022-12-07T07:01:16;1.30;99.90
26224;DHT22;14820;48.682;8.890;2022-12-07T07:03:42;1.30;99.90
26224;DHT22;14820;48.682;8.890;2022-12-07T07:06:07;1.30;99.90
26224;DHT22;14820;48.682;8.890;2022-12-07T07:08:33;1.30;99.90
26224;DHT22;14820;48.682;8.890;2022-12-07T07:10:59;1.30;99.90
26224;DHT22;14820;48.682;8.890;2022-12-07T07:13:24;1.40;99.90
26224;DHT22;14820;48.682;8.890;2022-12-07T07:15:50;1.40;99.90
26224;DHT22;14820;48.682;8.890;2022-12-07T07:18:15;1.40;99.90
26224;DHT22;14820;48.682;8.890;2022-12-07T07:20:41;1.30;99.90
26224;DHT22;14820;48.682;8.890;2022-12-07T07:23:06;1.30;99.90
26224;DHT22;14820;48.682;8.890;2022-12-07T07:25:32;1.30;99.90
26224;DHT22;14820;48.682;8.890;2022-12-07T07:27:58;1.30;99.90
26224;DHT22;14820;48.682;8.890;2022-12-07T07:30:24;1.30;99.90
26224;DHT22;14820;48.682;8.890;2022-12-07T07:32:49;1.30;99.90
26224;DHT22;14820;48.682;8.890;2022-12-07T07:35:15;1.30;99.90
26224;DHT22;14820;48.682;8.890;2022-12-07T07:37:41;1.30;99.90
26224;DHT22;14820;48.682;8.890;2022-12-07T07:40:07;1.30;99.90
26224;DHT22;14820;48.682;8.890;2022-12-07T07:42:32;1.30;99.90
26224;DHT22;14820;48.682;8.890;2022-12-07T07:44:58;1.40;99.90
26224;DHT22;14820;48.682;8.890;2022-12-07T07:47:23;1.40;99.90
26224;DHT22;14820;48.682;8.890;2022-12-07T07:49:49;1.30;99.90
26224;DHT22;14820;48.682;8.890;2022-12-07T07:52:14;1.30;99.90
26224;DHT22;14820;48.682;8.890;2022-12-07T07:54:40;1.30;99.90
26224;DHT22;14820;48.682;8.890;2022-12-07T07:57:05;1.40;99.90
26224;DHT22;14820;48.682;8.890;2022-12-07T07:59:31;1.40;99.90
26224;DHT22;14820;48.682;8.890;2022-12-07T08:01:56;1.40;99.90
26224;DHT22;14820;48.682;8.890;2022-12-07T08:04:22;1.40;99.90
26224;DHT22;14820;48.682;8.890;2022-12-07T08:06:47;1.50;99.90
26224;DHT22;14820;48.682;8.890;2022-12-07T08:09:13;1.50;99.90
26224;DHT22;14820;48.682;8.890;2022-12-07T08:11:38;1.50;99.90
26224;DHT22;14820;48.682;8.890;2022-12-07T08:14:04;1.60;99.90
26224;DHT22;14820;48.682;8.890;2022-12-07T08:16:29;1.60;99.90
26224;DHT22;14820;48.682;8.890;2022-12-07T08:18:55;1.60;99.90
26224;DHT22;14820;48.682;8.890;2022-12-07T08:21:21;1.60;99.90
26224;DHT22;14820;48.682;8.890;2022-12-07T08:23:46;1.60;99.90
26224;DHT22;14820;48.682;8.890;2022-12-07T08:26:13;1.70;99.90
26224;DHT22;14820;48.682;8.890;2022-12-07T08:28:39;1.70;99.90
26224;DHT22;14820;48.682;8.890;2022-12-07T08:31:05;1.70;99.90
26224;DHT22;14820;48.682;8.890;2022-12-07T08:33:31;1.80;99.90
26224;DHT22;14820;48.682;8.890;2022-12-07T08:36:01;1.80;99.90
26224;DHT22;14820;48.682;8.890;2022-12-07T08:38:26;1.90;99.90
26224;DHT22;14820;48.682;8.890;2022-12-07T08:40:57;1.90;99.90
26224;DHT22;14820;48.682;8.890;2022-12-07T08:43:24;2.00;99.90
26224;DHT22;14820;48.682;8.890;2022-12-07T08:48:34;2.10;99.90
26224;DHT22;14820;48.682;8.890;2022-12-07T08:51:01;2.20;99.90
26224;DHT22;14820;48.682;8.890;2022-12-07T08:53:27;2.10;99.90
26224;DHT22;14820;48.682;8.890;2022-12-07T08:55:53;2.20;99.90
26224;DHT22;14820;48.682;8.890;2022-12-07T08:58:18;2.20;99.90
26224;DHT22;14820;48.682;8.890;2022-12-07T09:00:44;2.30;99.90
26224;DHT22;14820;48.682;8.890;2022-12-07T09:03:09;2.20;99.90
26224;DHT22;14820;48.682;8.890;2022-12-07T09:05:35;2.20;99.90
26224;DHT22;14820;48.682;8.890;2022-12-07T09:08:01;2.20;99.90
26224;DHT22;14820;48.682;8.890;2022-12-07T09:10:27;2.30;99.90
26224;DHT22;14820;48.682;8.890;2022-12-07T09:12:53;2.20;99.90
26224;DHT22;14820;48.682;8.890;2022-12-07T09:15:18;2.30;99.90
26224;DHT22;14820;48.682;8.890;2022-12-07T09:17:44;2.30;99.90
26224;DHT22;14820;48.682;8.890;2022-12-07T09:20:09;2.30;99.90
26224;DHT22;14820;48.682;8.890;2022-12-07T09:22:35;2.30;99.90
26224;DHT22;14820;48.682;8.890;2022-12-07T09:25:01;2.40;99.90
26224;DHT22;14820;48.682;8.890;2022-12-07T09:27:27;2.50;99.90
26224;DHT22;14820;48.682;8.890;2022-12-07T09:29:53;2.50;99.90
26224;DHT22;14820;48.682;8.890;2022-12-07T09:32:18;2.50;99.90
26224;DHT22;14820;48.682;8.890;2022-12-07T09:34:44;2.60;99.90
26224;DHT22;14820;48.682;8.890;2022-12-07T09:37:09;2.60;99.90
26224;DHT22;14820;48.682;8.890;2022-12-07T09:39:37;2.60;99.90
26224;DHT22;14820;48.682;8.890;2022-12-07T09:42:03;2.70;99.90
26224;DHT22;14820;48.682;8.890;2022-12-07T09:44:29;2.70;99.90
26224;DHT22;14820;48.682;8.890;2022-12-07T09:46:55;2.70;99.90
26224;DHT22;14820;48.682;8.890;2022-12-07T09:49:23;2.70;99.90
26224;DHT22;14820;48.682;8.890;2022-12-07T09:52:16;2.80;99.90
26224;DHT22;14820;48.682;8.890;2022-12-07T09:54:35;2.80;99.90
26224;DHT22;14820;48.682;8.890;2022-12-07T09:57:02;2.90;99.90
26224;DHT22;14820;48.682;8.890;2022-12-07T09:59:27;2.90;99.90
26224;DHT22;14820;48.682;8.890;2022-12-07T10:01:53;2.90;99.90
26224;DHT22;14820;48.682;8.890;2022-12-07T10:04:20;3.00;99.90
26224;DHT22;14820;48.682;8.890;2022-12-07T10:06:46;3.00;99.90
26224;DHT22;14820;48.682;8.890;2022-12-07T10:09:13;3.00;99.90
26224;DHT22;14820;48.682;8.890;2022-12-07T10:14:38;3.10;99.90
26224;DHT22;14820;48.682;8.890;2022-12-07T10:19:49;3.20;99.90
26224;DHT22;14820;48.682;8.890;2022-12-07T10:22:15;3.20;99.90
26224;DHT22;14820;48.682;8.890;2022-12-07T10:24:41;3.20;99.90
26224;DHT22;14820;48.682;8.890;2022-12-07T10:27:18;3.20;99.90
26224;DHT22;14820;48.682;8.890;2022-12-07T10:29:54;3.20;99.90
26224;DHT22;14820;48.682;8.890;2022-12-07T10:34:45;3.30;99.90
26224;DHT22;14820;48.682;8.890;2022-12-07T10:39:52;3.40;99.90
26224;DHT22;14820;48.682;8.890;2022-12-07T10:42:22;3.40;99.90
26224;DHT22;14820;48.682;8.890;2022-12-07T10:44:48;3.40;99.90
26224;DHT22;14820;48.682;8.890;2022-12-07T10:52:44;3.50;99.90
26224;DHT22;14820;48.682;8.890;2022-12-07T10:55:16;3.50;99.90
26224;DHT22;14820;48.682;8.890;2022-12-07T11:00:31;3.50;99.90
26224;DHT22;14820;48.682;8.890;2022-12-07T11:15:21;3.70;99.90
26224;DHT22;14820;48.682;8.890;2022-12-07T11:23:11;3.80;99.90
26224;DHT22;14820;48.682;8.890;2022-12-07T11:25:49;3.70;99.90
26224;DHT22;14820;48.682;8.890;2022-12-07T11:28:20;3.80;99.90
26224;DHT22;14820;48.682;8.890;2022-12-07T11:31:00;3.80;99.90
26224;DHT22;14820;48.682;8.890;2022-12-07T11:33:29;3.90;99.90
26224;DHT22;14820;48.682;8.890;2022-12-07T11:38:45;3.90;99.90
26224;DHT22;14820;48.682;8.890;2022-12-07T11:41:12;4.00;99.90
26224;DHT22;14820;48.682;8.890;2022-12-07T11:43:46;4.00;99.90
26224;DHT22;14820;48.682;8.890;2022-12-07T11:46:15;4.00;99.90
26224;DHT22;14820;48.682;8.890;2022-12-07T11:51:23;4.00;99.90
26224;DHT22;14820;48.682;8.890;2022-12-07T11:53:51;4.10;99.90
26224;DHT22;14820;48.682;8.890;2022-12-07T11:56:22;4.00;99.90
26224;DHT22;14820;48.682;8.890;2022-12-07T12:06:38;4.00;99.90
26224;DHT22;14820;48.682;8.890;2022-12-07T12:09:11;4.00;99.90
26224;DHT22;14820;48.682;8.890;2022-12-07T12:22:06;4.00;99.90
26224;DHT22;14820;48.682;8.890;2022-12-07T12:24:33;4.00;99.90
26224;DHT22;14820;48.682;8.890;2022-12-07T12:27:06;4.00;99.90
26224;DHT22;14820;48.682;8.890;2022-12-07T12:29:41;4.00;99.90
26224;DHT22;14820;48.682;8.890;2022-12-07T12:32:14;4.00;99.90
26224;DHT22;14820;48.682;8.890;2022-12-07T12:34:57;4.00;99.90
26224;DHT22;14820;48.682;8.890;2022-12-07T12:37:41;4.10;99.90
26224;DHT22;14820;48.682;8.890;2022-12-07T12:42:49;4.10;99.90
26224;DHT22;14820;48.682;8.890;2022-12-07T12:45:20;4.10;99.90
26224;DHT22;14820;48.682;8.890;2022-12-07T12:48:02;4.10;99.90
26224;DHT22;14820;48.682;8.890;2022-12-07T12:50:29;4.10;99.90
26224;DHT22;14820;48.682;8.890;2022-12-07T12:52:56;4.10;99.90
26224;DHT22;14820;48.682;8.890;2022-12-07T12:55:44;4.10;99.90
26224;DHT22;14820;48.682;8.890;2022-12-07T13:00:44;4.10;99.90
26224;DHT22;14820;48.682;8.890;2022-12-07T13:03:21;4.10;99.90
26224;DHT22;14820;48.682;8.890;2022-12-07T13:05:48;4.10;99.90
26224;DHT22;14820;48.682;8.890;2022-12-07T13:08:34;4.10;99.90
26224;DHT22;14820;48.682;8.890;2022-12-07T13:11:15;4.10;99.90
26224;DHT22;14820;48.682;8.890;2022-12-07T13:13:42;4.10;99.90
26224;DHT22;14820;48.682;8.890;2022-12-07T13:21:02;4.10;99.90
26224;DHT22;14820;48.682;8.890;2022-12-07T13:28:45;4.00;99.90
26224;DHT22;14820;48.682;8.890;2022-12-07T13:31:12;4.10;99.90
26224;DHT22;14820;48.682;8.890;2022-12-07T13:33:39;4.00;99.90
26224;DHT22;14820;48.682;8.890;2022-12-07T13:36:11;4.10;99.90
26224;DHT22;14820;48.682;8.890;2022-12-07T13:38:40;4.00;99.90
26224;DHT22;14820;48.682;8.890;2022-12-07T13:41:15;4.00;99.90
26224;DHT22;14820;48.682;8.890;2022-12-07T13:46:15;4.10;99.90
26224;DHT22;14820;48.682;8.890;2022-12-07T13:48:46;4.10;99.90
26224;DHT22;14820;48.682;8.890;2022-12-07T13:51:20;4.10;99.90
26224;DHT22;14820;48.682;8.890;2022-12-07T13:53:47;4.10;99.90
26224;DHT22;14820;48.682;8.890;2022-12-07T13:56:12;4.10;99.90
26224;DHT22;14820;48.682;8.890;2022-12-07T13:58:40;4.10;99.90
26224;DHT22;14820;48.682;8.890;2022-12-07T14:01:05;4.10;99.90
26224;DHT22;14820;48.682;8.890;2022-12-07T14:03:32;4.10;99.90
26224;DHT22;14820;48.682;8.890;2022-12-07T14:06:06;4.10;99.90
26224;DHT22;14820;48.682;8.890;2022-12-07T14:08:31;4.10;99.90
26224;DHT22;14820;48.682;8.890;2022-12-07T14:10:57;4.00;99.90
26224;DHT22;14820;48.682;8.890;2022-12-07T14:15:51;4.00;99.90
26224;DHT22;14820;48.682;8.890;2022-12-07T14:18:24;4.00;99.90
26224;DHT22;14820;48.682;8.890;2022-12-07T14:21:36;4.00;99.90
26224;DHT22;14820;48.682;8.890;2022-12-07T14:23:37;4.00;99.90
26224;DHT22;14820;48.682;8.890;2022-12-07T14:26:13;4.00;99.90
26224;DHT22;14820;48.682;8.890;2022-12-07T14:28:39;4.10;99.90
26224;DHT22;14820;48.682;8.890;2022-12-07T14:31:09;4.10;99.90
26224;DHT22;14820;48.682;8.890;2022-12-07T14:33:36;4.10;99.90
26224;DHT22;14820;48.682;8.890;2022-12-07T14:36:02;4.10;99.90
26224;DHT22;14820;48.682;8.890;2022-12-07T14:38:27;4.00;99.90
26224;DHT22;14820;48.682;8.890;2022-12-07T14:40:53;4.00;99.90
26224;DHT22;14820;48.682;8.890;2022-12-07T14:43:19;4.00;99.90
26224;DHT22;14820;48.682;8.890;2022-12-07T14:45:45;4.00;99.90
26224;DHT22;14820;48.682;8.890;2022-12-07T14:48:11;4.00;99.90
26224;DHT22;14820;48.682;8.890;2022-12-07T14:50:41;3.90;99.90
26224;DHT22;14820;48.682;8.890;2022-12-07T14:53:18;3.90;99.90
26224;DHT22;14820;48.682;8.890;2022-12-07T14:55:48;3.90;99.90
26224;DHT22;14820;48.682;8.890;2022-12-07T14:58:14;3.90;99.90
26224;DHT22;14820;48.682;8.890;2022-12-07T15:00:40;3.90;99.90
26224;DHT22;14820;48.682;8.890;2022-12-07T15:03:06;3.90;99.90
26224;DHT22;14820;48.682;8.890;2022-12-07T15:05:31;3.90;99.90
26224;DHT22;14820;48.682;8.890;2022-12-07T15:07:57;3.90;99.90
26224;DHT22;14820;48.682;8.890;2022-12-07T15:10:24;3.90;99.90
26224;DHT22;14820;48.682;8.890;2022-12-07T15:12:54;4.00;99.90
26224;DHT22;14820;48.682;8.890;2022-12-07T15:15:20;3.90;99.90
26224;DHT22;14820;48.682;8.890;2022-12-07T15:17:45;4.00;99.90
26224;DHT22;14820;48.682;8.890;2022-12-07T15:20:14;4.00;99.90
26224;DHT22;14820;48.682;8.890;2022-12-07T15:22:42;4.00;99.90
26224;DHT22;14820;48.682;8.890;2022-12-07T15:25:08;4.00;99.90
26224;DHT22;14820;48.682;8.890;2022-12-07T15:27:34;4.00;99.90
26224;DHT22;14820;48.682;8.890;2022-12-07T15:29:59;3.90;99.90
26224;DHT22;14820;48.682;8.890;2022-12-07T15:32:25;3.80;99.90
26224;DHT22;14820;48.682;8.890;2022-12-07T15:34:50;3.80;99.90
26224;DHT22;14820;48.682;8.890;2022-12-07T15:37:16;3.70;99.90
26224;DHT22;14820;48.682;8.890;2022-12-07T15:39:41;3.70;99.90
26224;DHT22;14820;48.682;8.890;2022-12-07T15:42:07;3.70;99.90
26224;DHT22;14820;48.682;8.890;2022-12-07T15:44:33;3.60;99.90
26224;DHT22;14820;48.682;8.890;2022-12-07T15:47:17;3.60;99.90
26224;DHT22;14820;48.682;8.890;2022-12-07T15:49:42;3.60;99.90
26224;DHT22;14820;48.682;8.890;2022-12-07T15:52:08;3.60;99.90
26224;DHT22;14820;48.682;8.890;2022-12-07T15:54:33;3.60;99.90
26224;DHT22;14820;48.682;8.890;2022-12-07T15:56:59;3.60;99.90
26224;DHT22;14820;48.682;8.890;2022-12-07T15:59:25;3.60;99.90
26224;DHT22;14820;48.682;8.890;2022-12-07T16:01:51;3.60;99.90
26224;DHT22;14820;48.682;8.890;2022-12-07T16:04:17;3.60;99.90
26224;DHT22;14820;48.682;8.890;2022-12-07T16:06:42;3.50;99.90
26224;DHT22;14820;48.682;8.890;2022-12-07T16:09:08;3.60;99.90
26224;DHT22;14820;48.682;8.890;2022-12-07T16:11:34;3.50;99.90
26224;DHT22;14820;48.682;8.890;2022-12-07T16:13:59;3.50;99.90
26224;DHT22;14820;48.682;8.890;2022-12-07T16:16:25;3.40;99.90
26224;DHT22;14820;48.682;8.890;2022-12-07T16:18:51;3.40;99.90
26224;DHT22;14820;48.682;8.890;2022-12-07T16:21:17;3.40;99.90
26224;DHT22;14820;48.682;8.890;2022-12-07T16:23:43;3.50;99.90
26224;DHT22;14820;48.682;8.890;2022-12-07T16:26:10;3.40;99.90
26224;DHT22;14820;48.682;8.890;2022-12-07T16:28:36;3.40;99.90
26224;DHT22;14820;48.682;8.890;2022-12-07T16:31:09;3.40;99.90
26224;DHT22;14820;48.682;8.890;2022-12-07T16:33:36;3.40;99.90
26224;DHT22;14820;48.682;8.890;2022-12-07T16:36:02;3.30;99.90
26224;DHT22;14820;48.682;8.890;2022-12-07T16:38:28;3.30;99.90
26224;DHT22;14820;48.682;8.890;2022-12-07T16:40:54;3.30;99.90
26224;DHT22;14820;48.682;8.890;2022-12-07T16:43:19;3.20;99.90
26224;DHT22;14820;48.682;8.890;2022-12-07T16:45:45;3.20;99.90
26224;DHT22;14820;48.682;8.890;2022-12-07T16:48:11;3.20;99.90
26224;DHT22;14820;48.682;8.890;2022-12-07T16:50:38;3.10;99.90
26224;DHT22;14820;48.682;8.890;2022-12-07T16:53:04;3.10;99.90
26224;DHT22;14820;48.682;8.890;2022-12-07T16:55:29;3.10;99.90
26224;DHT22;14820;48.682;8.890;2022-12-07T16:57:55;3.10;99.90
26224;DHT22;14820;48.682;8.890;2022-12-07T17:00:21;3.10;99.90
26224;DHT22;14820;48.682;8.890;2022-12-07T17:02:47;3.10;99.90
26224;DHT22;14820;48.682;8.890;2022-12-07T17:05:12;3.10;99.90
26224;DHT22;14820;48.682;8.890;2022-12-07T17:07:38;3.00;99.90
26224;DHT22;14820;48.682;8.890;2022-12-07T17:10:03;3.00;99.90
26224;DHT22;14820;48.682;8.890;2022-12-07T17:12:29;3.00;99.90
26224;DHT22;14820;48.682;8.890;2022-12-07T17:14:55;3.00;99.90
26224;DHT22;14820;48.682;8.890;2022-12-07T17:17:38;2.90;99.90
26224;DHT22;14820;48.682;8.890;2022-12-07T17:20:04;2.80;99.90
26224;DHT22;14820;48.682;8.890;2022-12-07T17:22:30;2.80;99.90
26224;DHT22;14820;48.682;8.890;2022-12-07T17:24:55;2.70;99.90
26224;DHT22;14820;48.682;8.890;2022-12-07T17:27:21;2.60;99.90
26224;DHT22;14820;48.682;8.890;2022-12-07T17:29:46;2.60;99.90
26224;DHT22;14820;48.682;8.890;2022-12-07T17:32:12;2.60;99.90
26224;DHT22;14820;48.682;8.890;2022-12-07T17:34:37;2.50;99.90
26224;DHT22;14820;48.682;8.890;2022-12-07T17:37:03;2.50;99.90
26224;DHT22;14820;48.682;8.890;2022-12-07T17:39:29;2.50;99.90
26224;DHT22;14820;48.682;8.890;2022-12-07T17:41:54;2.50;99.90
26224;DHT22;14820;48.682;8.890;2022-12-07T17:44:38;2.50;99.90
26224;DHT22;14820;48.682;8.890;2022-12-07T17:47:04;2.50;99.90
26224;DHT22;14820;48.682;8.890;2022-12-07T17:49:30;2.50;99.90
26224;DHT22;14820;48.682;8.890;2022-12-07T17:51:56;2.40;99.90
26224;DHT22;14820;48.682;8.890;2022-12-07T17:54:40;2.40;99.90
26224;DHT22;14820;48.682;8.890;2022-12-07T17:57:06;2.50;99.90
26224;DHT22;14820;48.682;8.890;2022-12-07T17:59:31;2.50;99.90
26224;DHT22;14820;48.682;8.890;2022-12-07T18:01:57;2.50;99.90
26224;DHT22;14820;48.682;8.890;2022-12-07T18:04:22;2.40;99.90
26224;DHT22;14820;48.682;8.890;2022-12-07T18:06:48;2.40;99.90
26224;DHT22;14820;48.682;8.890;2022-12-07T18:09:13;2.30;99.90
26224;DHT22;14820;48.682;8.890;2022-12-07T18:11:39;2.40;99.90
26224;DHT22;14820;48.682;8.890;2022-12-07T18:14:04;2.40;99.90
26224;DHT22;14820;48.682;8.890;2022-12-07T18:16:30;2.30;99.90
26224;DHT22;14820;48.682;8.890;2022-12-07T18:18:59;2.30;99.90
26224;DHT22;14820;48.682;8.890;2022-12-07T18:21:26;2.20;99.90
26224;DHT22;14820;48.682;8.890;2022-12-07T18:23:52;2.20;99.90
26224;DHT22;14820;48.682;8.890;2022-12-07T18:26:18;2.10;99.90
26224;DHT22;14820;48.682;8.890;2022-12-07T18:28:44;2.10;99.90
26224;DHT22;14820;48.682;8.890;2022-12-07T18:31:10;2.10;99.90
26224;DHT22;14820;48.682;8.890;2022-12-07T18:33:37;2.00;99.90
26224;DHT22;14820;48.682;8.890;2022-12-07T18:36:02;2.00;99.90
26224;DHT22;14820;48.682;8.890;2022-12-07T18:38:28;1.90;99.90
26224;DHT22;14820;48.682;8.890;2022-12-07T18:40:54;1.90;99.90
26224;DHT22;14820;48.682;8.890;2022-12-07T18:43:20;1.90;99.90
26224;DHT22;14820;48.682;8.890;2022-12-07T18:45:46;1.80;99.90
26224;DHT22;14820;48.682;8.890;2022-12-07T18:48:12;1.80;99.90
26224;DHT22;14820;48.682;8.890;2022-12-07T18:50:38;1.80;99.90
26224;DHT22;14820;48.682;8.890;2022-12-07T18:53:04;1.80;99.90
26224;DHT22;14820;48.682;8.890;2022-12-07T18:55:29;1.80;99.90
26224;DHT22;14820;48.682;8.890;2022-12-07T18:57:56;1.80;99.90
26224;DHT22;14820;48.682;8.890;2022-12-07T19:00:22;1.80;99.90
26224;DHT22;14820;48.682;8.890;2022-12-07T19:02:48;1.80;99.90
26224;DHT22;14820;48.682;8.890;2022-12-07T19:05:14;1.80;99.90
26224;DHT22;14820;48.682;8.890;2022-12-07T19:07:39;1.80;99.90
26224;DHT22;14820;48.682;8.890;2022-12-07T19:10:05;1.80;99.90
26224;DHT22;14820;48.682;8.890;2022-12-07T19:12:32;1.80;99.90
26224;DHT22;14820;48.682;8.890;2022-12-07T19:14:58;1.70;99.90
26224;DHT22;14820;48.682;8.890;2022-12-07T19:17:24;1.70;99.90
26224;DHT22;14820;48.682;8.890;2022-12-07T19:19:49;1.70;99.90
26224;DHT22;14820;48.682;8.890;2022-12-07T19:22:16;1.60;99.90
26224;DHT22;14820;48.682;8.890;2022-12-07T19:24:42;1.60;99.90
26224;DHT22;14820;48.682;8.890;2022-12-07T19:27:08;1.60;99.90
26224;DHT22;14820;48.682;8.890;2022-12-07T19:29:34;1.60;99.90
26224;DHT22;14820;48.682;8.890;2022-12-07T19:32:00;1.60;99.90
26224;DHT22;14820;48.682;8.890;2022-12-07T19:34:26;1.60;99.90
26224;DHT22;14820;48.682;8.890;2022-12-07T19:36:51;1.60;99.90
26224;DHT22;14820;48.682;8.890;2022-12-07T19:39:17;1.60;99.90
26224;DHT22;14820;48.682;8.890;2022-12-07T19:41:43;1.60;99.90
26224;DHT22;14820;48.682;8.890;2022-12-07T19:46:34;1.60;99.90
26224;DHT22;14820;48.682;8.890;2022-12-07T19:49:00;1.60;99.90
26224;DHT22;14820;48.682;8.890;2022-12-07T19:51:27;1.60;99.90
26224;DHT22;14820;48.682;8.890;2022-12-07T19:53:53;1.60;99.90
26224;DHT22;14820;48.682;8.890;2022-12-07T19:56:20;1.60;99.90
26224;DHT22;14820;48.682;8.890;2022-12-07T19:58:46;1.60;99.90